createdAt,value
2022-09-28T00:00:08.093Z,4.53
2022-09-28T00:02:42.241Z,3.38
2022-09-28T00:05:12.836Z,2.83
2022-09-28T00:07:42.801Z,3.03
2022-09-28T00:10:13.213Z,3.55
2022-09-28T00:12:45.886Z,3.05
2022-09-28T00:15:15.884Z,3.00
2022-09-28T00:17:46.520Z,3.63
2022-09-28T00:20:18.175Z,3.50
2022-09-28T00:22:48.237Z,3.00
2022-09-28T00:25:18.738Z,3.33
2022-09-28T00:27:55.248Z,2.60
2022-09-28T00:30:25.144Z,2.65
2022-09-28T00:32:55.104Z,2.95
2022-09-28T00:35:25.139Z,3.15
2022-09-28T00:37:55.392Z,2.83
2022-09-28T00:40:25.461Z,2.97
2022-09-28T00:42:58.130Z,2.80
2022-09-28T00:45:29.080Z,2.42
2022-09-28T00:48:01.000Z,2.55
2022-09-28T00:50:33.008Z,2.60
2022-09-28T00:53:05.345Z,2.45
2022-09-28T00:55:40.932Z,2.72
2022-09-28T00:58:16.876Z,2.70
2022-09-28T01:00:48.240Z,2.60
2022-09-28T01:03:19.832Z,2.65
2022-09-28T01:05:50.276Z,2.80
2022-09-28T01:08:21.868Z,2.45
2022-09-28T01:10:52.106Z,1.77
2022-09-28T01:13:26.782Z,1.30
2022-09-28T01:16:03.919Z,1.00
2022-09-28T01:18:38.478Z,1.58
2022-09-28T01:21:13.315Z,1.38
2022-09-28T01:23:57.587Z,1.42
2022-09-28T01:26:46.046Z,1.17
2022-09-28T01:29:21.338Z,1.55
2022-09-28T01:31:55.498Z,1.33
2022-09-28T01:34:30.098Z,2.13
2022-09-28T01:37:01.533Z,1.50
2022-09-28T01:39:35.806Z,1.40
2022-09-28T01:42:12.508Z,1.42
2022-09-28T01:44:45.521Z,1.40
2022-09-28T01:47:17.581Z,1.10
2022-09-28T01:49:50.226Z,1.30
2022-09-28T01:52:24.942Z,1.25
2022-09-28T01:54:58.025Z,1.45
2022-09-28T01:57:34.847Z,1.55
2022-09-28T02:00:08.952Z,1.63
2022-09-28T02:02:46.507Z,1.25
2022-09-28T02:05:19.793Z,1.80
2022-09-28T02:07:54.661Z,2.15
2022-09-28T02:10:27.285Z,1.13
2022-09-28T02:13:03.056Z,1.30
2022-09-28T02:15:38.373Z,1.58
2022-09-28T02:18:08.757Z,1.42
2022-09-28T02:20:41.933Z,1.67
2022-09-28T02:23:12.730Z,1.40
2022-09-28T02:25:49.866Z,1.20
2022-09-28T02:28:24.729Z,1.58
2022-09-28T02:30:54.766Z,1.58
2022-09-28T02:33:28.520Z,1.88
2022-09-28T02:35:58.818Z,1.70
2022-09-28T02:38:29.536Z,1.50
2022-09-28T02:41:07.200Z,1.38
2022-09-28T02:43:47.329Z,1.45
2022-09-28T02:46:24.090Z,1.80
2022-09-28T02:49:21.762Z,1.75
2022-09-28T02:52:08.041Z,1.98
2022-09-28T02:55:09.884Z,1.67
2022-09-28T02:57:49.275Z,1.58
2022-09-28T03:00:23.787Z,1.60
2022-09-28T03:03:02.249Z,1.50
2022-09-28T03:05:40.916Z,1.52
2022-09-28T03:08:16.354Z,1.30
2022-09-28T03:10:50.055Z,1.70
2022-09-28T03:13:21.092Z,1.63
2022-09-28T03:15:53.951Z,1.77
2022-09-28T03:18:24.226Z,1.55
2022-09-28T03:20:54.146Z,1.27
2022-09-28T03:23:25.427Z,1.67
2022-09-28T03:25:56.322Z,1.50
2022-09-28T03:28:26.659Z,1.45
2022-09-28T03:30:59.618Z,1.40
2022-09-28T03:33:29.522Z,1.75
2022-09-28T03:35:59.497Z,1.55
2022-09-28T03:38:29.532Z,1.40
2022-09-28T03:41:00.663Z,1.52
2022-09-28T03:43:36.575Z,1.45
2022-09-28T03:46:10.079Z,1.38
2022-09-28T03:48:45.183Z,1.75
2022-09-28T03:51:15.911Z,1.40
2022-09-28T03:53:45.854Z,2.00
2022-09-28T03:56:17.624Z,1.98
2022-09-28T03:58:47.557Z,2.53
2022-09-28T04:01:21.760Z,2.40
2022-09-28T04:03:56.705Z,1.58
2022-09-28T04:06:27.707Z,2.70
2022-09-28T04:08:57.872Z,2.35
2022-09-28T04:11:38.555Z,2.17
2022-09-28T04:14:18.716Z,2.30
2022-09-28T04:16:54.424Z,2.33
2022-09-28T04:19:26.997Z,2.13
2022-09-28T04:22:15.667Z,2.08
2022-09-28T04:24:46.630Z,1.90
2022-09-28T04:27:29.041Z,1.92
2022-09-28T04:29:58.935Z,2.00
2022-09-28T04:32:31.550Z,1.98
2022-09-28T04:35:01.884Z,3.00
2022-09-28T04:37:32.033Z,1.80
2022-09-28T04:40:02.040Z,2.58
2022-09-28T04:42:33.044Z,2.72
2022-09-28T04:45:04.995Z,3.15
2022-09-28T04:47:40.860Z,2.35
2022-09-28T04:50:26.641Z,2.13
2022-09-28T04:53:15.223Z,2.33
2022-09-28T04:55:45.265Z,2.10
2022-09-28T04:58:15.202Z,2.05
2022-09-28T05:00:45.178Z,2.70
2022-09-28T05:03:34.652Z,2.60
2022-09-28T05:06:19.156Z,2.72
2022-09-28T05:08:50.809Z,1.70
2022-09-28T05:11:21.793Z,2.35
2022-09-28T05:13:51.800Z,2.80
2022-09-28T05:16:22.887Z,2.55
2022-09-28T05:21:58.089Z,1.90
2022-09-28T05:24:28.364Z,2.78
2022-09-28T05:26:58.283Z,2.38
2022-09-28T05:29:32.079Z,2.20
2022-09-28T05:32:21.049Z,1.70
2022-09-28T05:35:13.589Z,2.35
2022-09-28T05:37:47.882Z,2.33
2022-09-28T05:40:18.938Z,2.63
2022-09-28T05:42:48.967Z,1.98
2022-09-28T05:45:19.136Z,1.85
2022-09-28T05:47:49.207Z,1.98
2022-09-28T05:50:24.689Z,2.28
2022-09-28T05:53:02.046Z,2.35
2022-09-28T05:55:32.496Z,2.50
2022-09-28T05:58:02.811Z,1.70
2022-09-28T06:00:33.486Z,1.95
2022-09-28T06:03:08.883Z,2.00
2022-09-28T06:05:42.496Z,2.28
2022-09-28T06:08:13.248Z,1.80
2022-09-28T06:10:47.782Z,1.80
2022-09-28T06:13:17.913Z,2.17
2022-09-28T06:15:47.955Z,2.10
2022-09-28T06:18:18.070Z,1.95
2022-09-28T06:21:10.982Z,2.00
2022-09-28T06:26:20.895Z,1.90
2022-09-28T06:28:51.646Z,1.42
2022-09-28T06:31:23.933Z,1.40
2022-09-28T06:33:54.452Z,1.98
2022-09-28T06:36:27.141Z,1.58
2022-09-28T06:38:57.217Z,1.38
2022-09-28T06:41:27.853Z,1.80
2022-09-28T06:44:02.227Z,1.50
2022-09-28T06:46:51.033Z,1.73
2022-09-28T06:49:22.307Z,1.38
2022-09-28T06:52:33.434Z,1.23
2022-09-28T06:55:09.412Z,1.60
2022-09-28T06:57:47.257Z,1.40
2022-09-28T07:00:18.889Z,1.50
2022-09-28T07:02:50.237Z,1.48
2022-09-28T07:05:44.748Z,1.30
2022-09-28T07:08:54.562Z,1.02
2022-09-28T07:12:03.334Z,1.38
2022-09-28T07:14:50.625Z,1.10
2022-09-28T07:17:20.829Z,1.52
2022-09-28T07:19:52.963Z,1.75
2022-09-28T07:22:36.855Z,0.90
2022-09-28T07:25:14.435Z,1.90
2022-09-28T07:27:47.506Z,1.20
2022-09-28T07:30:21.159Z,1.13
2022-09-28T07:33:25.308Z,1.02
2022-09-28T07:42:09.532Z,1.15
2022-09-28T07:44:41.162Z,1.33
2022-09-28T07:47:11.337Z,2.60
2022-09-28T07:50:04.554Z,1.20
2022-09-28T07:52:52.218Z,1.35
2022-09-28T07:55:34.067Z,0.57
2022-09-28T18:58:45.218Z,25.33
2022-09-28T19:01:29.840Z,20.15
2022-09-28T19:04:02.543Z,9.23
2022-09-28T19:06:32.885Z,9.88
2022-09-28T19:09:03.146Z,10.02
2022-09-28T19:11:33.024Z,9.93
2022-09-28T19:14:06.061Z,7.97
2022-09-28T19:16:36.572Z,9.80
2022-09-28T19:19:06.763Z,7.90
2022-09-28T19:21:37.051Z,6.38
2022-09-28T19:24:07.616Z,6.07
2022-09-28T19:26:37.568Z,6.95
2022-09-28T19:29:10.210Z,10.68
2022-09-28T19:31:40.826Z,8.75
2022-09-28T19:34:13.437Z,6.07
2022-09-28T19:36:44.820Z,5.90
2022-09-28T19:39:16.897Z,5.97
2022-09-28T19:41:51.257Z,6.63
2022-09-28T19:44:27.863Z,9.63
2022-09-28T19:46:58.929Z,9.90
2022-09-28T19:49:33.157Z,10.00
2022-09-28T19:52:18.969Z,5.38
2022-09-28T19:54:55.876Z,3.38
2022-09-28T19:57:26.728Z,3.88
2022-09-28T20:00:03.183Z,4.68
2022-09-28T20:02:36.628Z,3.65
2022-09-28T20:05:09.869Z,4.47
2022-09-28T20:07:39.946Z,3.35
2022-09-28T20:10:10.349Z,5.47
2022-09-28T20:12:42.323Z,7.50
2022-09-28T20:15:16.701Z,4.85
2022-09-28T20:17:46.537Z,6.72
2022-09-28T20:20:16.750Z,9.02
2022-09-28T20:22:46.593Z,9.40
2022-09-28T20:25:16.498Z,4.22
2022-09-28T20:27:46.365Z,5.55
2022-09-28T20:30:21.610Z,5.97
2022-09-28T20:32:51.541Z,6.97
2022-09-28T20:35:30.600Z,3.10
2022-09-28T20:38:08.151Z,3.83
2022-09-28T20:40:38.230Z,7.05
2022-09-28T20:43:09.294Z,8.02
2022-09-28T20:45:41.732Z,9.18
2022-09-28T20:48:11.581Z,7.40
2022-09-28T20:50:41.396Z,6.70
2022-09-28T20:53:11.230Z,4.57
2022-09-28T20:55:41.097Z,4.05
2022-09-28T20:58:10.936Z,2.28
2022-09-28T21:00:43.378Z,2.40
2022-09-28T21:03:13.326Z,3.42
2022-09-28T21:05:43.327Z,2.63
2022-09-28T21:08:13.226Z,2.65
2022-09-28T21:10:46.480Z,2.33
2022-09-28T21:13:16.627Z,2.40
2022-09-28T21:15:49.127Z,2.50
2022-09-28T21:18:19.278Z,3.13
2022-09-28T21:20:49.978Z,3.72
2022-09-28T21:23:24.715Z,5.68
2022-09-28T21:26:04.292Z,6.68
2022-09-28T21:28:34.489Z,4.43
2022-09-28T21:31:08.767Z,4.88
2022-09-28T21:33:38.865Z,4.38
2022-09-28T21:36:10.762Z,5.50
2022-09-28T21:38:40.626Z,5.53
2022-09-28T21:41:10.477Z,5.10
2022-09-28T21:43:40.437Z,5.07
2022-09-28T21:46:13.125Z,3.63
2022-09-28T21:48:43.788Z,5.07
2022-09-28T21:51:16.429Z,4.18
2022-09-28T21:53:46.260Z,4.13
2022-09-28T21:56:16.085Z,3.40
2022-09-28T21:58:45.964Z,5.25
2022-09-28T22:01:20.004Z,3.60
2022-09-28T22:03:51.748Z,5.32
2022-09-28T22:06:23.039Z,8.32
2022-09-28T22:08:53.422Z,9.32
2022-09-28T22:11:24.812Z,8.10
2022-09-28T22:13:56.360Z,6.20
2022-09-28T22:16:30.492Z,5.53
2022-09-28T22:19:00.723Z,5.90
2022-09-28T22:21:32.041Z,5.80
2022-09-28T22:24:03.676Z,11.63
2022-09-28T22:26:35.478Z,7.97
2022-09-28T22:29:07.738Z,5.80
2022-09-28T22:31:41.445Z,5.90
2022-09-28T22:34:12.633Z,4.78
2022-09-28T22:36:42.592Z,3.90
2022-09-28T22:39:12.649Z,3.85
2022-09-28T22:41:42.489Z,5.85
2022-09-28T22:44:12.322Z,4.10
2022-09-28T22:46:44.904Z,4.18
2022-09-28T22:49:15.533Z,3.78
2022-09-28T22:51:45.354Z,3.92
2022-09-28T22:54:16.519Z,4.05
2022-09-28T22:56:46.987Z,6.75
2022-09-28T22:59:16.922Z,4.68
2022-09-28T23:01:49.518Z,5.30
2022-09-28T23:04:19.346Z,8.68
2022-09-28T23:06:49.168Z,8.90
2022-09-28T23:09:19.268Z,9.15
2022-09-28T23:11:49.125Z,8.93
2022-09-28T23:14:19.269Z,7.65
2022-09-28T23:16:51.757Z,7.78
2022-09-28T23:19:21.566Z,8.65
2022-09-28T23:21:51.466Z,8.18
2022-09-28T23:24:21.402Z,7.82
2022-09-28T23:26:51.509Z,8.73
2022-09-28T23:29:21.378Z,8.77
2022-09-28T23:31:53.973Z,13.82
2022-09-28T23:34:23.823Z,9.27
2022-09-28T23:36:55.111Z,9.02
2022-09-28T23:39:24.934Z,11.60
2022-09-28T23:41:54.751Z,15.20
2022-09-28T23:44:24.590Z,13.77
2022-09-28T23:46:57.584Z,9.38
2022-09-28T23:49:27.432Z,9.07
2022-09-28T23:51:57.253Z,5.57
2022-09-28T23:54:27.065Z,4.78
2022-09-28T23:56:56.899Z,6.32
2022-09-28T23:59:26.813Z,7.18
